Time;durP1;ratioP1;P1;durP2;ratioP2;P2;SDS_P1;SDS_P2;PMS_P1;PMS_P2;Temp;Humidity;BMP_temperature;BMP_pressure;BME280_temperature;BME280_humidity;BME280_pressure;Samples;Min_cycle;Max_cycle;Signal;HPM_P1;HPM_P2
2024/04/19 00:01:27;;;;;;;0.35;0.35;;;;;;;8.60;53.99;99620.94;5305395;26;33921;-83
2024/04/19 00:03:54;;;;;;;1.12;1.00;;;;;;;8.41;54.25;99613.75;5288137;26;32467;-82
2024/04/19 00:06:21;;;;;;;0.35;0.35;;;;;;;8.47;54.02;99620.53;5286694;26;32734;-83
2024/04/19 00:08:47;;;;;;;0.30;0.30;;;;;;;8.43;54.30;99617.16;5305478;26;34229;-82
2024/04/19 00:11:14;;;;;;;0.10;0.10;;;;;;;8.27;54.72;99616.00;5287618;26;34082;-82
2024/04/19 00:13:40;;;;;;;1.55;1.17;;;;;;;7.84;56.16;99628.06;5323893;26;32287;-83
2024/04/19 00:16:07;;;;;;;0.20;0.20;;;;;;;8.02;55.46;99630.94;5287233;26;32347;-82
2024/04/19 00:18:34;;;;;;;0.00;0.00;;;;;;;8.05;55.58;99633.47;5286862;26;32708;-83
2024/04/19 00:21:00;;;;;;;0.00;0.00;;;;;;;8.43;54.23;99629.47;5305975;26;34062;-82
2024/04/19 00:23:27;;;;;;;0.22;0.22;;;;;;;8.41;54.26;99636.56;5305167;26;32057;-82
2024/04/19 00:25:54;;;;;;;0.22;0.22;;;;;;;8.32;54.40;99635.09;5287255;26;32886;-82
2024/04/19 00:28:37;;;;;;;0.85;0.82;;;;;;;8.13;55.16;99644.59;5310652;26;33971;-82
2024/04/19 00:31:04;;;;;;;0.55;0.37;;;;;;;8.30;54.69;99642.16;5287146;26;33877;-82
2024/04/19 00:33:33;;;;;;;0.62;0.43;;;;;;;8.58;53.73;99646.44;5287414;26;32185;-81
2024/04/19 00:35:59;;;;;;;0.00;0.00;;;;;;;8.31;54.30;99649.19;5305869;26;34607;-82
2024/04/19 00:38:26;;;;;;;0.00;0.00;;;;;;;8.33;54.47;99644.69;5323914;26;34121;-80
2024/04/19 00:40:54;;;;;;;0.00;0.00;;;;;;;8.42;54.14;99647.03;5323544;26;33957;-81
2024/04/19 00:43:21;;;;;;;0.03;0.03;;;;;;;8.35;54.17;99637.59;5323970;26;32992;-81
2024/04/19 00:45:55;;;;;;;0.30;0.22;;;;;;;8.43;54.17;99643.47;5288134;26;32516;-81
2024/04/19 00:48:22;;;;;;;0.00;0.00;;;;;;;8.54;53.48;99639.56;5323234;26;33919;-80
2024/04/19 00:50:54;;;;;;;0.00;0.00;;;;;;;8.42;53.73;99647.03;5323277;26;33466;-80
2024/04/19 00:53:26;;;;;;;0.25;0.25;;;;;;;8.17;54.75;99659.34;5287198;26;33933;-80
2024/04/19 00:55:59;;;;;;;0.00;0.00;;;;;;;8.48;53.72;99650.34;5305962;26;33527;-80
2024/04/19 00:58:26;;;;;;;0.15;0.15;;;;;;;8.25;54.38;99659.91;5323685;26;32732;-80
2024/04/19 01:00:53;;;;;;;0.03;0.03;;;;;;;8.14;54.73;99659.44;5305704;26;34287;-81
2024/04/19 01:03:20;;;;;;;0.00;0.00;;;;;;;8.28;54.50;99653.69;5305390;26;33655;-81
2024/04/19 01:05:47;;;;;;;0.00;0.00;;;;;;;8.17;54.61;99657.56;5324213;26;34458;-81
2024/04/19 01:08:27;;;;;;;0.00;0.00;;;;;;;8.01;54.94;99664.25;5308830;26;33909;-81
2024/04/19 01:10:54;;;;;;;0.00;0.00;;;;;;;7.84;55.78;99674.53;5324044;26;34034;-81
2024/04/19 01:13:21;;;;;;;0.00;0.00;;;;;;;7.80;55.96;99672.91;5323382;26;33068;-81
2024/04/19 01:15:48;;;;;;;0.00;0.00;;;;;;;8.31;54.56;99666.69;5305389;26;33369;-80
2024/04/19 01:18:14;;;;;;;0.85;0.85;;;;;;;8.16;54.90;99670.75;5305376;26;34111;-80
2024/04/19 01:20:42;;;;;;;0.00;0.00;;;;;;;7.88;55.31;99682.25;5286546;26;33513;-80
2024/04/19 01:23:18;;;;;;;0.00;0.00;;;;;;;7.82;55.60;99677.19;5290075;26;33188;-80
2024/04/19 01:25:47;;;;;;;0.00;0.00;;;;;;;7.42;57.10;99675.91;5323372;26;34961;-80
2024/04/19 01:28:20;;;;;;;0.52;0.52;;;;;;;7.66;56.12;99678.66;5324476;26;33123;-81
2024/04/19 01:30:48;;;;;;;0.00;0.00;;;;;;;7.63;56.11;99676.09;5305344;26;33431;-80
2024/04/19 01:33:15;;;;;;;0.00;0.00;;;;;;;7.47;57.16;99681.03;5305577;26;33193;-80
2024/04/19 01:35:42;;;;;;;0.45;0.43;;;;;;;7.64;56.18;99688.31;5323252;26;32736;-80
2024/04/19 01:38:08;;;;;;;0.00;0.00;;;;;;;7.41;56.81;99683.84;5323488;26;34048;-80
2024/04/19 01:40:35;;;;;;;0.00;0.00;;;;;;;7.11;58.04;99677.81;5286981;26;34624;-79
2024/04/19 01:43:02;;;;;;;0.00;0.00;;;;;;;7.38;57.52;99682.19;5323704;26;33579;-80
2024/04/19 01:45:28;;;;;;;0.00;0.00;;;;;;;7.44;57.33;99686.38;5305343;26;33917;-82
2024/04/19 01:47:55;;;;;;;0.25;0.25;;;;;;;7.79;55.63;99685.22;5323292;26;34754;-81
2024/04/19 01:50:25;;;;;;;0.00;0.00;;;;;;;7.63;55.82;99686.63;5306119;26;33674;-81
2024/04/19 01:52:53;;;;;;;0.10;0.10;;;;;;;7.40;56.59;99682.97;5267332;26;33186;-81
2024/04/19 01:55:20;;;;;;;0.00;0.00;;;;;;;7.62;55.87;99684.91;5342985;26;34650;-81
2024/04/19 01:57:48;;;;;;;0.20;0.20;;;;;;;7.56;56.01;99688.59;5287130;26;33489;-81
2024/04/19 02:00:16;;;;;;;0.00;0.00;;;;;;;7.38;56.82;99683.94;5305328;26;33358;-81
2024/04/19 02:02:44;;;;;;;0.10;0.10;;;;;;;7.21;57.61;99683.63;5343327;26;33479;-80
2024/04/19 02:05:11;;;;;;;0.00;0.00;;;;;;;7.34;56.74;99693.69;5305135;26;33390;-80
2024/04/19 02:07:38;;;;;;;0.32;0.32;;;;;;;7.27;57.04;99686.06;5305308;26;33793;-80
2024/04/19 02:10:07;;;;;;;0.20;0.20;;;;;;;7.06;57.90;99698.09;5323551;26;33780;-82
2024/04/19 02:12:33;;;;;;;0.10;0.10;;;;;;;7.01;58.41;99702.63;5305300;26;33003;-80
2024/04/19 02:15:00;;;;;;;0.10;0.10;;;;;;;6.99;58.57;99701.81;5305422;26;33855;-79
2024/04/19 02:17:27;;;;;;;0.20;0.20;;;;;;;7.26;57.37;99698.31;5305376;26;34441;-79
2024/04/19 02:19:53;;;;;;;0.00;0.00;;;;;;;7.18;57.42;99697.72;5305415;26;33564;-81
2024/04/19 02:22:20;;;;;;;0.00;0.00;;;;;;;7.21;57.01;99705.47;5286950;26;32850;-80
2024/04/19 02:24:47;;;;;;;0.40;0.37;;;;;;;7.13;57.59;99704.88;5286995;26;33130;-81
2024/04/19 02:32:50;;;;;;;0.00;0.00;;;;;;;7.12;57.54;99705.78;5326330;26;33236;-81
2024/04/19 02:35:19;;;;;;;0.00;0.00;;;;;;;7.13;57.44;99713.63;5287522;26;34268;-80
2024/04/19 02:37:47;;;;;;;2.40;1.00;;;;;;;7.07;57.70;99702.44;5323375;26;34583;-80
2024/04/19 02:40:14;;;;;;;0.00;0.00;;;;;;;6.66;59.75;99710.66;5305935;26;34615;-80
2024/04/19 02:42:41;;;;;;;0.00;0.00;;;;;;;6.86;58.80;99704.81;5286675;26;32060;-81
2024/04/19 02:45:08;;;;;;;0.10;0.10;;;;;;;6.78;58.98;99712.03;5304786;26;33406;-81
2024/04/19 02:47:44;;;;;;;0.03;0.03;;;;;;;6.65;59.52;99715.97;5304843;26;34582;-81
2024/04/19 02:50:14;;;;;;;0.00;0.00;;;;;;;6.64;59.42;99709.81;5289290;26;33472;-81
2024/04/19 02:52:41;;;;;;;0.00;0.00;;;;;;;6.95;58.24;99702.81;5343363;26;33481;-81
2024/04/19 02:55:08;;;;;;;0.00;0.00;;;;;;;6.79;58.61;99703.28;5286095;26;33587;-81
2024/04/19 02:57:35;;;;;;;0.17;0.17;;;;;;;6.76;58.58;99715.62;5286467;26;32600;-80
2024/04/19 03:00:03;;;;;;;0.25;0.25;;;;;;;6.55;59.01;99706.59;5304592;26;34018;-80
2024/04/19 03:02:43;;;;;;;0.40;0.37;;;;;;;6.53;60.00;99708.44;5309727;26;33482;-81
2024/04/19 03:05:10;;;;;;;0.00;0.00;;;;;;;6.46;60.20;99714.72;5304900;26;33529;-80
2024/04/19 03:07:49;;;;;;;0.00;0.00;;;;;;;6.82;58.55;99703.19;5304870;26;32962;-82
2024/04/19 03:10:31;;;;;;;1.62;1.12;;;;;;;6.77;58.58;99707.72;5305724;26;32870;-82
2024/04/19 03:13:02;;;;;;;0.00;0.00;;;;;;;6.82;58.45;99711.06;5307016;26;32760;-82
2024/04/19 03:16:10;;;;;;;0.43;0.43;;;;;;;6.65;58.58;99713.34;5305735;26;33128;-81
2024/04/19 03:18:41;;;;;;;0.00;0.00;;;;;;;6.59;58.84;99713.50;5305574;26;33777;-82
2024/04/19 03:21:07;;;;;;;;;;;;;;;6.64;58.73;99701.94;5324843;26;34846;-82
2024/04/19 03:23:34;;;;;;;;;;;;;;;6.68;58.88;99715.84;5324427;26;33948;-82
2024/04/19 03:26:00;;;;;;;;;;;;;;;6.40;59.95;99727.13;5305398;26;33171;-82
2024/04/19 03:28:27;;;;;;;;;;;;;;;6.26;60.86;99729.25;5323925;26;35112;-82
2024/04/19 03:31:00;;;;;;;;;;;;;;;6.14;60.49;99727.00;5324798;26;33739;-82
2024/04/19 03:33:35;;;;;;;;;;;;;;;6.34;60.25;99721.19;5291158;26;32582;-82
2024/04/19 03:36:04;;;;;;;;;;;;;;;6.58;59.13;99719.66;5344397;26;33714;-81
2024/04/19 03:38:31;;;;;;;;;;;;;;;6.51;59.83;99715.50;5306549;26;33932;-82
2024/04/19 03:40:57;;;;;;;;;;;;;;;6.65;58.65;99721.22;5323759;26;35017;-82
2024/04/19 03:43:23;;;;;;;;;;;;;;;6.88;58.00;99718.75;5324370;26;33236;-82
2024/04/19 03:45:50;;;;;;;;;;;;;;;6.68;58.32;99724.56;5287873;26;32929;-81
2024/04/19 03:48:16;;;;;;;;;;;;;;;6.84;58.11;99724.16;5324314;26;33701;-81
2024/04/19 03:50:46;;;;;;;;;;;;;;;6.88;57.64;99721.38;5323802;26;34428;-82
2024/04/19 03:53:13;;;;;;;;;;;;;;;6.45;59.13;99739.25;5306377;26;32656;-81
2024/04/19 03:55:39;;;;;;;;;;;;;;;6.56;59.27;99745.06;5306117;26;33153;-81
2024/04/19 03:58:05;;;;;;;;;;;;;;;6.77;58.39;99746.22;5306318;26;34532;-81
2024/04/19 04:00:35;;;;;;;;;;;;;;;6.46;59.46;99754.06;5306433;26;33246;-82
2024/04/19 04:03:02;;;;;;;;;;;;;;;6.51;59.31;99752.22;5287904;26;32685;-82
2024/04/19 04:05:28;;;;;;;;;;;;;;;6.60;59.26;99752.81;5324320;26;33728;-82
2024/04/19 04:07:54;;;;;;;;;;;;;;;6.48;59.43;99755.78;5306104;26;33168;-82
2024/04/19 04:10:21;;;;;;;;;;;;;;;6.32;60.24;99751.88;5306161;26;33710;-82
2024/04/19 04:12:49;;;;;;;;;;;;;;;6.59;59.32;99752.84;5324170;26;33105;-82
2024/04/19 04:15:15;;;;;;;;;;;;;;;6.38;59.58;99749.91;5306063;26;33291;-81
2024/04/19 04:17:42;;;;;;;;;;;;;;;6.46;59.99;99756.69;5306167;26;33041;-82
2024/04/19 04:20:08;;;;;;;;;;;;;;;6.48;59.74;99753.16;5324619;26;34149;-82
2024/04/19 04:22:35;;;;;;;;;;;;;;;6.51;59.69;99749.59;5305042;26;32111;-81
2024/04/19 04:25:02;;;;;;;;;;;;;;;6.44;59.68;99751.50;5305640;26;32825;-81
2024/04/19 04:27:28;;;;;;;;;;;;;;;6.99;58.18;99754.34;5343641;26;33631;-80
2024/04/19 04:29:55;;;;;;;;;;;;;;;7.09;57.99;99747.91;5323791;26;34531;-79
2024/04/19 04:32:22;;;;;;;;;;;;;;;6.86;58.96;99764.31;5287610;26;33371;-80
2024/04/19 04:34:48;;;;;;;;;;;;;;;6.29;60.61;99768.53;5343718;26;35007;-79
2024/04/19 04:37:15;;;;;;;;;;;;;;;6.86;58.98;99766.94;5323842;26;34723;-79
2024/04/19 04:39:42;;;;;;;;;;;;;;;6.72;59.20;99769.09;5306021;26;35102;-79
2024/04/19 04:42:08;;;;;;;;;;;;;;;7.02;58.60;99769.97;5305056;26;33819;-79
2024/04/19 04:44:34;;;;;;;;;;;;;;;7.09;58.09;99764.50;5324144;26;34290;-80
2024/04/19 04:47:01;;;;;;;;;;;;;;;6.94;58.15;99770.22;5305346;26;33444;-79
2024/04/19 04:49:28;;;;;;;;;;;;;;;7.33;57.62;99767.28;5305500;26;33098;-80
2024/04/19 04:51:54;;;;;;;;;;;;;;;7.24;57.72;99768.44;5323703;26;33965;-79
2024/04/19 04:54:21;;;;;;;;;;;;;;;7.11;58.24;99777.56;5305638;26;34127;-80
2024/04/19 04:56:49;;;;;;;;;;;;;;;7.28;57.44;99771.81;5323661;26;34919;-80
2024/04/19 04:59:16;;;;;;;;;;;;;;;7.09;58.24;99774.16;5323838;26;34087;-80
2024/04/19 05:01:42;;;;;;;;;;;;;;;7.50;57.20;99765.00;5305534;26;32612;-80
2024/04/19 05:04:09;;;;;;;;;;;;;;;7.85;55.86;99769.09;5323277;26;33977;-81
2024/04/19 05:06:35;;;;;;;;;;;;;;;7.46;56.98;99765.16;5304901;26;34328;-81
2024/04/19 05:09:03;;;;;;;;;;;;;;;7.40;57.14;99769.66;5324059;26;34233;-81
2024/04/19 05:11:29;;;;;;;;;;;;;;;7.32;57.07;99773.47;5305158;26;33486;-83
2024/04/19 05:13:55;;;;;;;;;;;;;;;7.29;57.27;99771.78;5323360;26;34590;-81
2024/04/19 05:16:22;;;;;;;;;;;;;;;7.47;57.21;99769.50;5304890;26;33636;-82
2024/04/19 05:18:48;;;;;;;;;;;;;;;7.71;56.16;99768.69;5304721;26;34242;-82
2024/04/19 05:21:15;;;;;;;;;;;;;;;7.55;56.54;99763.09;5324031;26;33349;-82
2024/04/19 05:23:43;;;;;;;;;;;;;;;8.10;55.35;99760.38;5305093;26;34210;-82
2024/04/19 05:26:09;;;;;;;;;;;;;;;7.95;55.63;99775.78;5324542;26;34620;-82
2024/04/19 05:28:36;;;;;;;;;;;;;;;7.69;56.20;99774.03;5343348;26;34169;-82
2024/04/19 05:31:03;;;;;;;;;;;;;;;7.67;56.02;99781.06;5304915;26;33008;-82
2024/04/19 05:33:30;;;;;;;;;;;;;;;7.55;56.50;99784.09;5305078;26;32964;-82
2024/04/19 05:35:56;;;;;;;;;;;;;;;7.67;56.14;99788.97;5302315;26;35259;-81
2024/04/19 05:38:23;;;;;;;0.43;0.43;;;;;;;8.25;54.51;99790.56;5322553;26;33220;-81
2024/04/19 05:40:49;;;;;;;0.40;0.40;;;;;;;8.71;53.35;99795.97;5286205;26;32616;-82
2024/04/19 05:43:16;;;;;;;0.00;0.00;;;;;;;8.72;53.09;99792.41;5285898;26;32092;-82
2024/04/19 05:45:43;;;;;;;2.08;0.30;;;;;;;8.80;52.98;99804.44;5305165;26;34529;-81
2024/04/19 05:48:09;;;;;;;0.00;0.00;;;;;;;8.57;53.31;99794.75;5304927;26;34143;-81
2024/04/19 05:50:36;;;;;;;1.00;1.00;;;;;;;8.84;52.37;99796.38;5286127;26;31815;-81
2024/04/19 05:53:03;;;;;;;0.03;0.03;;;;;;;8.45;54.02;99794.28;5286302;26;33525;-82
2024/04/19 05:55:30;;;;;;;0.20;0.20;;;;;;;8.46;53.83;99790.72;5305303;26;34734;-81
2024/04/19 05:57:56;;;;;;;0.03;0.03;;;;;;;8.74;52.75;99784.47;5303612;26;33671;-81
2024/04/19 06:00:23;;;;;;;0.00;0.00;;;;;;;9.10;51.22;99782.22;5286424;26;33161;-81
2024/04/19 06:02:50;;;;;;;0.00;0.00;;;;;;;8.92;51.68;99794.31;5304581;26;33849;-81
2024/04/19 06:05:16;;;;;;;0.00;0.00;;;;;;;8.91;51.13;99791.75;5304520;26;34783;-82
2024/04/19 06:07:43;;;;;;;0.57;0.57;;;;;;;9.16;50.79;99799.56;5286435;26;32181;-82
2024/04/19 06:10:10;;;;;;;0.62;0.62;;;;;;;9.04;50.98;99803.53;5286595;26;34432;-82
2024/04/19 06:12:36;;;;;;;1.40;1.30;;;;;;;9.18;50.01;99800.41;5286496;26;32745;-81
2024/04/19 06:15:03;;;;;;;0.20;0.17;;;;;;;9.22;50.42;99794.94;5286540;26;32813;-82
2024/04/19 06:17:30;;;;;;;0.10;0.10;;;;;;;9.28;50.55;99791.22;5304490;26;34087;-80
2024/04/19 06:19:59;;;;;;;0.70;0.65;;;;;;;9.11;51.19;99793.63;5304844;26;32106;-80
2024/04/19 06:22:27;;;;;;;1.17;1.00;;;;;;;9.41;50.33;99787.19;5323403;26;33348;-80
2024/04/19 06:24:56;;;;;;;0.05;0.05;;;;;;;9.36;51.54;99781.25;5323347;26;34647;-80
2024/04/19 06:27:22;;;;;;;0.00;0.00;;;;;;;9.27;51.88;99784.25;5323428;26;33267;-80
2024/04/19 06:29:49;;;;;;;0.22;0.22;;;;;;;9.25;51.59;99783.41;5304140;26;33152;-80
2024/04/19 06:32:16;;;;;;;0.17;0.17;;;;;;;9.46;50.32;99779.09;5304543;26;34630;-80
2024/04/19 06:34:48;;;;;;;0.00;0.00;;;;;;;9.74;49.31;99773.59;5304039;26;33422;-80
2024/04/19 06:37:15;;;;;;;0.28;0.28;;;;;;;10.10;49.03;99771.19;5304486;26;33822;-80
2024/04/19 06:39:41;;;;;;;0.65;0.65;;;;;;;10.55;47.27;99772.81;5323186;26;33785;-80
2024/04/19 06:42:08;;;;;;;0.00;0.00;;;;;;;10.35;47.87;99776.34;5285845;26;34580;-80
2024/04/19 06:44:34;;;;;;;0.37;0.37;;;;;;;10.96;45.84;99773.59;5342593;26;33634;-81
2024/04/19 06:47:04;;;;;;;0.55;0.30;;;;;;;10.77;46.41;99773.56;5302903;26;34596;-80
2024/04/19 06:49:30;;;;;;;2.40;0.82;;;;;;;11.15;46.30;99763.03;5303794;26;34369;-81
2024/04/19 06:51:57;;;;;;;2.90;1.17;;;;;;;11.18;46.73;99764.69;5304509;26;34196;-80
2024/04/19 06:54:23;;;;;;;0.10;0.10;;;;;;;11.62;44.79;99767.00;5321977;26;32924;-81
2024/04/19 06:56:50;;;;;;;0.17;0.17;;;;;;;11.51;43.87;99764.87;5342854;26;33987;-80
2024/04/19 06:59:16;;;;;;;0.20;0.20;;;;;;;11.80;43.70;99761.66;5304554;26;33548;-80
2024/04/19 07:01:43;;;;;;;0.00;0.00;;;;;;;11.73;41.62;99764.69;5304497;26;33414;-80
2024/04/19 07:04:10;;;;;;;0.52;0.52;;;;;;;11.77;41.76;99760.94;5304164;26;33423;-82
2024/04/19 07:06:36;;;;;;;0.20;0.20;;;;;;;11.35;43.49;99764.75;5304247;26;34067;-80
2024/04/19 07:09:03;;;;;;;0.55;0.37;;;;;;;11.17;43.67;99765.63;5303287;26;33448;-80
2024/04/19 07:11:29;;;;;;;1.00;0.55;;;;;;;11.84;42.27;99761.56;5304390;26;33869;-80
2024/04/19 07:13:56;;;;;;;0.20;0.20;;;;;;;12.00;39.79;99751.91;5322319;26;32543;-79
2024/04/19 07:16:23;;;;;;;0.13;0.13;;;;;;;12.18;40.16;99763.34;5304664;26;32203;-80
2024/04/19 07:18:49;;;;;;;0.55;0.55;;;;;;;11.64;40.98;99754.56;5285904;26;32001;-80
2024/04/19 07:21:16;;;;;;;0.00;0.00;;;;;;;11.37;41.74;99757.59;5322917;26;34316;-80
2024/04/19 07:23:43;;;;;;;0.20;0.20;;;;;;;11.97;39.94;99758.22;5304731;26;34493;-81
2024/04/19 07:26:09;;;;;;;0.05;0.05;;;;;;;11.68;41.55;99756.09;5304469;26;34039;-81
2024/04/19 07:28:36;;;;;;;0.32;0.32;;;;;;;12.04;40.52;99750.81;5286435;26;31913;-81
2024/04/19 07:31:03;;;;;;;0.03;0.03;;;;;;;11.95;40.44;99754.78;5322862;26;34510;-81
2024/04/19 07:33:30;;;;;;;0.28;0.28;;;;;;;12.28;40.22;99756.66;5323029;26;34109;-81
2024/04/19 07:35:56;;;;;;;0.22;0.22;;;;;;;12.82;37.51;99746.78;5322984;26;33526;-80
2024/04/19 07:38:23;;;;;;;0.00;0.00;;;;;;;12.46;38.85;99739.81;5304716;26;32066;-80
2024/04/19 07:40:49;;;;;;;0.00;0.00;;;;;;;12.33;38.25;99754.63;5323018;26;33470;-80
2024/04/19 07:43:16;;;;;;;0.00;0.00;;;;;;;13.08;37.76;99743.53;5322962;26;34449;-80
2024/04/19 07:45:43;;;;;;;0.00;0.00;;;;;;;13.23;36.48;99741.00;5304655;26;34034;-80
2024/04/19 07:48:10;;;;;;;0.00;0.00;;;;;;;12.91;37.14;99738.28;5322599;26;33531;-80
2024/04/19 07:50:37;;;;;;;0.32;0.20;;;;;;;12.57;38.27;99740.09;5304515;26;33495;-80
2024/04/19 07:53:04;;;;;;;0.00;0.00;;;;;;;12.80;37.49;99740.69;5304833;26;32581;-80
2024/04/19 07:55:30;;;;;;;0.25;0.25;;;;;;;13.14;37.65;99736.19;5320510;26;35150;-80
2024/04/19 07:57:57;;;;;;;0.00;0.00;;;;;;;13.02;37.51;99743.88;5322245;26;34286;-80
2024/04/19 08:00:24;;;;;;;0.00;0.00;;;;;;;12.86;37.47;99737.69;5286082;26;34107;-81
2024/04/19 08:02:50;;;;;;;1.08;0.95;;;;;;;12.92;37.82;99740.03;5304961;26;33969;-80
2024/04/19 08:05:18;;;;;;;0.55;0.32;;;;;;;13.41;37.68;99744.44;5304899;26;35606;-81
2024/04/19 08:07:45;;;;;;;0.00;0.00;;;;;;;13.24;38.24;99732.09;5305633;26;33462;-80
2024/04/19 08:10:15;;;;;;;0.00;0.00;;;;;;;13.73;36.58;99745.28;5305216;26;33631;-80
2024/04/19 08:12:44;;;;;;;0.17;0.17;;;;;;;13.90;35.76;99731.84;5305058;26;34224;-80
2024/04/19 08:15:10;;;;;;;0.10;0.00;;;;;;;13.70;35.87;99737.47;5287459;26;32930;-80
2024/04/19 08:17:40;;;;;;;0.00;0.00;;;;;;;14.12;34.93;99736.78;5286729;26;32800;-80
2024/04/19 08:20:08;;;;;;;0.00;0.00;;;;;;;13.61;35.81;99736.19;5305892;26;33965;-80
2024/04/19 08:22:34;;;;;;;0.10;0.10;;;;;;;13.74;36.17;99731.06;5343352;26;34510;-81
2024/04/19 08:25:01;;;;;;;0.00;0.00;;;;;;;13.60;36.59;99738.94;5286820;26;32572;-80
2024/04/19 08:27:28;;;;;;;0.28;0.28;;;;;;;13.62;35.57;99731.75;5323528;26;34231;-81
2024/04/19 08:29:55;;;;;;;0.05;0.05;;;;;;;13.40;36.13;99732.97;5286559;26;32150;-81
2024/04/19 08:32:22;;;;;;;0.05;0.05;;;;;;;13.68;35.76;99739.38;5304939;26;33326;-81
2024/04/19 08:34:52;;;;;;;0.30;0.30;;;;;;;13.95;36.70;99729.78;5304961;26;33113;-81
2024/04/19 08:37:19;;;;;;;0.08;0.08;;;;;;;14.13;36.16;99732.31;5305925;26;32998;-81
2024/04/19 08:39:46;;;;;;;0.05;0.05;;;;;;;13.99;35.68;99731.31;5304678;26;33247;-82
2024/04/19 08:42:13;;;;;;;0.08;0.08;;;;;;;13.93;35.80;99726.37;5305223;26;33887;-81
2024/04/19 08:44:45;;;;;;;0.25;0.25;;;;;;;14.34;34.60;99726.59;5304413;26;33969;-81
2024/04/19 08:47:14;;;;;;;0.08;0.08;;;;;;;14.00;34.78;99721.56;5286079;26;32562;-81
2024/04/19 08:49:43;;;;;;;0.10;0.10;;;;;;;14.21;34.81;99712.31;5286866;26;33923;-81
2024/04/19 08:52:10;;;;;;;0.10;0.10;;;;;;;14.20;35.50;99718.59;5323587;26;33662;-81
2024/04/19 08:54:37;;;;;;;0.08;0.08;;;;;;;14.24;34.35;99711.28;5323522;26;33917;-81
2024/04/19 08:57:04;;;;;;;0.00;0.00;;;;;;;14.49;34.05;99708.88;5323447;26;34184;-81
2024/04/19 08:59:31;;;;;;;0.15;0.13;;;;;;;14.54;35.17;99712.13;5305378;26;34306;-81
2024/04/19 09:01:58;;;;;;;0.00;0.00;;;;;;;14.93;33.62;99697.28;5304979;26;34511;-81
2024/04/19 09:04:25;;;;;;;0.20;0.20;;;;;;;15.32;31.72;99701.00;5286785;26;34933;-81
2024/04/19 09:06:52;;;;;;;0.20;0.20;;;;;;;15.13;31.50;99697.81;5304802;26;34728;-81
2024/04/19 09:09:19;;;;;;;0.00;0.00;;;;;;;15.16;32.08;99698.47;5286541;26;33017;-82
2024/04/19 09:11:49;;;;;;;0.35;0.00;;;;;;;15.19;33.54;99692.09;5304648;26;32599;-81
2024/04/19 09:14:15;;;;;;;0.30;0.30;;;;;;;15.29;32.22;99691.44;5322996;26;33456;-81
2024/04/19 09:16:42;;;;;;;1.77;0.68;;;;;;;15.17;32.89;99694.00;5304660;26;33062;-82
2024/04/19 09:19:12;;;;;;;0.00;0.00;;;;;;;14.81;33.49;99684.75;5304835;26;32376;-81
2024/04/19 09:21:38;;;;;;;0.52;0.52;;;;;;;15.37;33.25;99680.28;5305135;26;34115;-81
2024/04/19 09:24:09;;;;;;;0.50;0.50;;;;;;;15.26;33.33;99678.31;5304881;26;35018;-81
2024/04/19 09:26:36;;;;;;;0.10;0.10;;;;;;;15.46;32.62;99665.50;5305559;26;32550;-82
2024/04/19 09:29:04;;;;;;;0.10;0.10;;;;;;;15.92;32.09;99676.66;5305011;26;32994;-82
2024/04/19 09:31:31;;;;;;;0.25;0.25;;;;;;;15.64;32.73;99671.47;5305813;26;33769;-81
2024/04/19 09:33:58;;;;;;;0.57;0.10;;;;;;;15.82;31.26;99672.91;5286420;26;32847;-82
2024/04/19 09:36:24;;;;;;;0.60;0.20;;;;;;;15.61;31.45;99670.66;5305335;26;33698;-81
2024/04/19 09:38:52;;;;;;;0.00;0.00;;;;;;;16.30;30.80;99654.50;5286982;26;35268;-81
2024/04/19 09:41:19;;;;;;;0.17;0.17;;;;;;;16.71;30.46;99656.06;5285943;26;34210;-82
2024/04/19 09:43:51;;;;;;;0.15;0.10;;;;;;;16.36;29.93;99659.41;5304377;26;32661;-82
2024/04/19 09:46:39;;;;;;;0.52;0.52;;;;;;;15.73;30.25;99661.06;5287123;26;33276;-83
2024/04/19 09:49:08;;;;;;;0.93;0.60;;;;;;;15.59;28.90;99659.28;5323659;26;33988;-84
2024/04/19 09:51:48;;;;;;;0.03;0.03;;;;;;;15.93;29.16;99651.72;5305309;26;33624;-83
2024/04/19 09:54:16;;;;;;;0.57;0.10;;;;;;;16.24;29.11;99652.28;5323127;26;32472;-83
2024/04/19 09:56:57;;;;;;;0.08;0.08;;;;;;;16.30;28.19;99641.19;5323704;26;33188;-83
2024/04/19 09:59:24;;;;;;;0.70;0.13;;;;;;;16.88;27.14;99645.06;5304812;26;33223;-83
2024/04/19 10:01:51;;;;;;;0.28;0.10;;;;;;;16.14;28.06;99644.06;5322086;26;33242;-83
2024/04/19 10:04:22;;;;;;;0.52;0.17;;;;;;;16.58;27.27;99638.28;5305461;26;33882;-83
2024/04/19 10:06:49;;;;;;;0.10;0.10;;;;;;;16.96;25.67;99631.19;5304716;26;33575;-83
2024/04/19 10:09:17;;;;;;;0.10;0.10;;;;;;;16.94;26.06;99636.63;5323498;26;34573;-83
2024/04/19 10:11:46;;;;;;;0.25;0.25;;;;;;;16.20;26.36;99634.81;5268865;26;32889;-83
2024/04/19 10:14:13;;;;;;;0.05;0.05;;;;;;;16.54;27.08;99636.78;5286746;26;32924;-83
2024/04/19 10:16:40;;;;;;;0.00;0.00;;;;;;;16.90;27.06;99629.81;5304976;26;33701;-83
2024/04/19 10:19:07;;;;;;;2.62;0.85;;;;;;;17.33;27.55;99632.03;5305557;26;33776;-83
2024/04/19 10:21:36;;;;;;;0.32;0.25;;;;;;;17.26;27.06;99628.09;5286757;26;32738;-83
2024/04/19 10:24:19;;;;;;;0.00;0.00;;;;;;;17.31;25.65;99628.59;5304924;26;34979;-83
2024/04/19 10:26:55;;;;;;;0.00;0.00;;;;;;;17.52;27.40;99621.66;5305070;26;33118;-83
2024/04/19 10:29:26;;;;;;;0.00;0.00;;;;;;;16.70;26.47;99603.72;5306046;26;33960;-83
2024/04/19 10:31:55;;;;;;;0.35;0.35;;;;;;;16.71;26.76;99600.94;5286633;26;33277;-83
2024/04/19 10:34:22;;;;;;;0.10;0.10;;;;;;;16.84;25.47;99608.94;5286535;26;33252;-83
2024/04/19 10:36:51;;;;;;;0.00;0.00;;;;;;;16.25;28.07;99603.38;5304580;26;33447;-83
2024/04/19 10:39:21;;;;;;;0.00;0.00;;;;;;;16.47;28.44;99598.19;5286569;26;34723;-83
2024/04/19 10:41:49;;;;;;;0.30;0.15;;;;;;;17.09;25.37;99600.84;5304556;26;33213;-83
2024/04/19 10:44:20;;;;;;;;;;;;;;;17.61;25.70;99580.94;5288756;26;33175;-83
2024/04/19 10:46:49;;;;;;;0.00;0.00;;;;;;;17.25;25.58;99591.69;5304764;26;34104;-83
2024/04/19 10:49:20;;;;;;;0.00;0.00;;;;;;;17.15;26.33;99586.19;5304205;26;33860;-83
2024/04/19 10:51:49;;;;;;;2.70;1.15;;;;;;;16.78;27.03;99582.72;5287365;26;34843;-83
2024/04/19 10:54:16;;;;;;;0.00;0.00;;;;;;;17.06;26.99;99579.72;5304948;26;33920;-83
2024/04/19 10:56:42;;;;;;;0.00;0.00;;;;;;;17.00;26.99;99577.53;5304972;26;33449;-82
2024/04/19 10:59:09;;;;;;;0.00;0.00;;;;;;;16.50;27.98;99582.00;5286898;26;33145;-83
2024/04/19 11:01:41;;;;;;;0.00;0.00;;;;;;;16.87;26.73;99574.03;5304887;26;32395;-83
2024/04/19 11:04:07;;;;;;;0.10;0.10;;;;;;;17.06;25.45;99569.06;5305847;26;32496;-83
2024/04/19 11:06:34;;;;;;;0.17;0.10;;;;;;;17.48;25.24;99566.81;5304698;26;34102;-83
2024/04/19 11:09:01;;;;;;;0.00;0.00;;;;;;;17.50;26.57;99569.34;5304718;26;33840;-83
2024/04/19 11:11:33;;;;;;;0.00;0.00;;;;;;;17.65;25.40;99563.69;5304686;26;32864;-84
2024/04/19 11:14:00;;;;;;;10.85;0.82;;;;;;;17.50;26.47;99556.84;5305742;26;33173;-83
2024/04/19 11:16:27;;;;;;;0.15;0.15;;;;;;;17.89;26.03;99544.09;5304833;26;32732;-83
2024/04/19 11:18:53;;;;;;;0.10;0.10;;;;;;;18.35;25.46;99540.47;5286776;26;32288;-83
2024/04/19 11:21:20;;;;;;;1.08;0.45;;;;;;;18.45;25.51;99544.09;5323024;26;34140;-83
2024/04/19 11:23:46;;;;;;;0.05;0.05;;;;;;;18.47;25.01;99534.16;5305267;26;33982;-83
2024/04/19 11:26:16;;;;;;;0.00;0.00;;;;;;;18.14;24.82;99535.87;5286170;26;32557;-84
2024/04/19 11:28:45;;;;;;;0.43;0.30;;;;;;;17.34;27.98;99541.16;5305196;26;32813;-84
2024/04/19 11:31:12;;;;;;;0.28;0.28;;;;;;;17.74;25.94;99539.94;5304830;26;33099;-83
2024/04/19 11:33:39;;;;;;;1.92;0.52;;;;;;;18.23;24.52;99536.09;5286781;26;33207;-84
2024/04/19 11:36:11;;;;;;;0.00;0.00;;;;;;;18.12;25.95;99524.44;5269242;26;34136;-84
2024/04/19 11:38:38;;;;;;;0.00;0.00;;;;;;;18.47;24.42;99518.09;5305852;26;34543;-83
2024/04/19 11:41:04;;;;;;;0.57;0.57;;;;;;;19.17;24.24;99504.28;5323874;26;32840;-84
2024/04/19 11:43:31;;;;;;;0.20;0.20;;;;;;;18.76;23.14;99510.41;5287384;26;33640;-83
2024/04/19 11:45:58;;;;;;;0.13;0.08;;;;;;;18.57;24.07;99505.69;5324267;26;33507;-84
2024/04/19 11:48:25;;;;;;;0.17;0.15;;;;;;;18.75;24.22;99507.84;5287167;26;33277;-83
2024/04/19 11:50:53;;;;;;;0.00;0.00;;;;;;;18.68;24.07;99499.47;5287819;26;34997;-83
2024/04/19 11:53:19;;;;;;;0.00;0.00;;;;;;;18.72;24.04;99498.25;5286939;26;34315;-83
2024/04/19 11:55:50;;;;;;;0.08;0.08;;;;;;;18.28;24.22;99497.34;5306029;26;33599;-84
2024/04/19 11:58:17;;;;;;;0.55;0.15;;;;;;;18.86;24.71;99500.66;5306401;26;32961;-84
2024/04/19 12:00:44;;;;;;;0.22;0.20;;;;;;;19.23;23.89;99491.34;5324094;26;32834;-84